sensor_id;sensor_type;location;lat;lon;timestamp;P1;durP1;ratioP1;P2;durP2;ratioP2
16193;SDS011;8204;53.582;10.080;2024-01-07T00:02:23;2.73;;;2.07;;
16193;SDS011;8204;53.582;10.080;2024-01-07T00:04:48;3.43;;;3.00;;
16193;SDS011;8204;53.582;10.080;2024-01-07T00:07:14;2.80;;;2.60;;
16193;SDS011;8204;53.582;10.080;2024-01-07T00:09:39;3.70;;;2.60;;
16193;SDS011;8204;53.582;10.080;2024-01-07T00:12:05;2.50;;;2.10;;
16193;SDS011;8204;53.582;10.080;2024-01-07T00:14:31;3.17;;;2.93;;
16193;SDS011;8204;53.582;10.080;2024-01-07T00:16:56;2.63;;;2.43;;
16193;SDS011;8204;53.582;10.080;2024-01-07T00:19:23;4.80;;;2.03;;
16193;SDS011;8204;53.582;10.080;2024-01-07T00:21:48;2.03;;;1.90;;
16193;SDS011;8204;53.582;10.080;2024-01-07T00:24:15;3.20;;;2.40;;
16193;SDS011;8204;53.582;10.080;2024-01-07T00:26:41;4.47;;;2.67;;
16193;SDS011;8204;53.582;10.080;2024-01-07T00:29:06;2.73;;;2.53;;
16193;SDS011;8204;53.582;10.080;2024-01-07T00:31:32;2.93;;;2.20;;
16193;SDS011;8204;53.582;10.080;2024-01-07T00:33:57;2.37;;;2.17;;
16193;SDS011;8204;53.582;10.080;2024-01-07T00:36:22;4.33;;;2.63;;
16193;SDS011;8204;53.582;10.080;2024-01-07T00:38:48;2.60;;;2.13;;
16193;SDS011;8204;53.582;10.080;2024-01-07T00:41:13;3.30;;;2.23;;
16193;SDS011;8204;53.582;10.080;2024-01-07T00:43:39;2.70;;;2.50;;
16193;SDS011;8204;53.582;10.080;2024-01-07T00:46:06;3.80;;;2.17;;
16193;SDS011;8204;53.582;10.080;2024-01-07T00:48:32;3.10;;;2.40;;
16193;SDS011;8204;53.582;10.080;2024-01-07T00:50:58;2.73;;;2.23;;
16193;SDS011;8204;53.582;10.080;2024-01-07T00:53:23;2.13;;;1.97;;
16193;SDS011;8204;53.582;10.080;2024-01-07T00:55:48;3.40;;;2.90;;
16193;SDS011;8204;53.582;10.080;2024-01-07T00:58:14;2.73;;;2.33;;
16193;SDS011;8204;53.582;10.080;2024-01-07T01:00:40;2.00;;;1.90;;
16193;SDS011;8204;53.582;10.080;2024-01-07T01:03:06;6.03;;;3.07;;
16193;SDS011;8204;53.582;10.080;2024-01-07T01:05:32;4.03;;;2.73;;
16193;SDS011;8204;53.582;10.080;2024-01-07T01:07:57;2.63;;;1.73;;
16193;SDS011;8204;53.582;10.080;2024-01-07T01:10:22;3.50;;;3.20;;
16193;SDS011;8204;53.582;10.080;2024-01-07T01:12:49;3.27;;;2.83;;
16193;SDS011;8204;53.582;10.080;2024-01-07T01:15:18;2.27;;;2.10;;
16193;SDS011;8204;53.582;10.080;2024-01-07T01:17:47;3.83;;;2.53;;
16193;SDS011;8204;53.582;10.080;2024-01-07T01:20:13;2.07;;;1.70;;
16193;SDS011;8204;53.582;10.080;2024-01-07T01:22:40;1.83;;;1.73;;
16193;SDS011;8204;53.582;10.080;2024-01-07T01:25:06;2.93;;;1.97;;
16193;SDS011;8204;53.582;10.080;2024-01-07T01:27:31;2.97;;;2.50;;
16193;SDS011;8204;53.582;10.080;2024-01-07T01:30:03;2.73;;;2.53;;
16193;SDS011;8204;53.582;10.080;2024-01-07T01:32:29;3.60;;;2.90;;
16193;SDS011;8204;53.582;10.080;2024-01-07T01:34:54;1.90;;;1.80;;
16193;SDS011;8204;53.582;10.080;2024-01-07T01:37:20;3.27;;;2.00;;
16193;SDS011;8204;53.582;10.080;2024-01-07T01:39:45;1.87;;;1.73;;
16193;SDS011;8204;53.582;10.080;2024-01-07T01:42:10;2.13;;;1.93;;
16193;SDS011;8204;53.582;10.080;2024-01-07T01:44:36;2.40;;;2.20;;
16193;SDS011;8204;53.582;10.080;2024-01-07T01:47:01;2.43;;;2.23;;
16193;SDS011;8204;53.582;10.080;2024-01-07T01:49:27;1.90;;;1.70;;
16193;SDS011;8204;53.582;10.080;2024-01-07T01:51:53;1.90;;;1.70;;
16193;SDS011;8204;53.582;10.080;2024-01-07T01:54:19;3.27;;;2.00;;
16193;SDS011;8204;53.582;10.080;2024-01-07T01:56:45;2.60;;;2.40;;
16193;SDS011;8204;53.582;10.080;2024-01-07T01:59:13;3.43;;;2.30;;
16193;SDS011;8204;53.582;10.080;2024-01-07T02:01:39;2.37;;;2.17;;
16193;SDS011;8204;53.582;10.080;2024-01-07T02:04:05;2.00;;;1.80;;
16193;SDS011;8204;53.582;10.080;2024-01-07T02:06:30;2.67;;;2.47;;
16193;SDS011;8204;53.582;10.080;2024-01-07T02:08:56;3.40;;;2.30;;
16193;SDS011;8204;53.582;10.080;2024-01-07T02:11:21;2.80;;;2.17;;
16193;SDS011;8204;53.582;10.080;2024-01-07T02:13:48;3.83;;;2.23;;
16193;SDS011;8204;53.582;10.080;2024-01-07T02:16:14;2.60;;;1.90;;
16193;SDS011;8204;53.582;10.080;2024-01-07T02:18:42;2.37;;;1.80;;
16193;SDS011;8204;53.582;10.080;2024-01-07T02:21:09;1.90;;;1.70;;
16193;SDS011;8204;53.582;10.080;2024-01-07T02:23:37;2.63;;;2.43;;
16193;SDS011;8204;53.582;10.080;2024-01-07T02:26:02;3.63;;;3.10;;
16193;SDS011;8204;53.582;10.080;2024-01-07T02:28:29;2.33;;;2.10;;
16193;SDS011;8204;53.582;10.080;2024-01-07T02:30:55;3.00;;;2.13;;
16193;SDS011;8204;53.582;10.080;2024-01-07T02:33:21;2.07;;;1.70;;
16193;SDS011;8204;53.582;10.080;2024-01-07T02:35:46;3.40;;;1.90;;
16193;SDS011;8204;53.582;10.080;2024-01-07T02:38:12;3.00;;;1.57;;
16193;SDS011;8204;53.582;10.080;2024-01-07T02:40:37;1.67;;;1.47;;
16193;SDS011;8204;53.582;10.080;2024-01-07T02:43:03;3.17;;;2.33;;
16193;SDS011;8204;53.582;10.080;2024-01-07T02:45:28;2.90;;;2.27;;
16193;SDS011;8204;53.582;10.080;2024-01-07T02:47:54;2.37;;;2.17;;
16193;SDS011;8204;53.582;10.080;2024-01-07T02:50:19;1.93;;;1.53;;
16193;SDS011;8204;53.582;10.080;2024-01-07T02:52:45;2.90;;;1.73;;
16193;SDS011;8204;53.582;10.080;2024-01-07T02:55:10;4.87;;;1.93;;
16193;SDS011;8204;53.582;10.080;2024-01-07T02:57:36;3.50;;;1.93;;
16193;SDS011;8204;53.582;10.080;2024-01-07T03:00:02;2.47;;;2.10;;
16193;SDS011;8204;53.582;10.080;2024-01-07T03:02:30;2.60;;;2.17;;
16193;SDS011;8204;53.582;10.080;2024-01-07T03:04:56;2.20;;;2.00;;
16193;SDS011;8204;53.582;10.080;2024-01-07T03:07:22;1.97;;;1.57;;
16193;SDS011;8204;53.582;10.080;2024-01-07T03:09:48;2.03;;;1.37;;
16193;SDS011;8204;53.582;10.080;2024-01-07T03:12:18;1.57;;;1.33;;
16193;SDS011;8204;53.582;10.080;2024-01-07T03:14:43;2.20;;;1.63;;
16193;SDS011;8204;53.582;10.080;2024-01-07T03:17:10;3.93;;;2.20;;
16193;SDS011;8204;53.582;10.080;2024-01-07T03:19:37;2.40;;;1.60;;
16193;SDS011;8204;53.582;10.080;2024-01-07T03:22:02;1.60;;;1.47;;
16193;SDS011;8204;53.582;10.080;2024-01-07T03:24:28;2.13;;;1.93;;
16193;SDS011;8204;53.582;10.080;2024-01-07T03:26:54;1.93;;;1.73;;
16193;SDS011;8204;53.582;10.080;2024-01-07T03:29:19;5.10;;;2.13;;
16193;SDS011;8204;53.582;10.080;2024-01-07T03:31:45;3.33;;;1.40;;
16193;SDS011;8204;53.582;10.080;2024-01-07T03:34:10;3.53;;;2.17;;
16193;SDS011;8204;53.582;10.080;2024-01-07T03:36:35;5.23;;;1.80;;
16193;SDS011;8204;53.582;10.080;2024-01-07T03:39:01;2.43;;;2.23;;
16193;SDS011;8204;53.582;10.080;2024-01-07T03:41:26;3.10;;;1.73;;
16193;SDS011;8204;53.582;10.080;2024-01-07T03:43:52;2.17;;;1.77;;
16193;SDS011;8204;53.582;10.080;2024-01-07T03:46:18;1.50;;;1.40;;
16193;SDS011;8204;53.582;10.080;2024-01-07T03:48:44;2.23;;;1.73;;
16193;SDS011;8204;53.582;10.080;2024-01-07T03:51:10;2.20;;;1.87;;
16193;SDS011;8204;53.582;10.080;2024-01-07T03:53:35;2.80;;;1.53;;
16193;SDS011;8204;53.582;10.080;2024-01-07T03:56:00;1.60;;;1.50;;
16193;SDS011;8204;53.582;10.080;2024-01-07T03:58:26;1.47;;;1.37;;
16193;SDS011;8204;53.582;10.080;2024-01-07T04:00:52;2.87;;;1.83;;
16193;SDS011;8204;53.582;10.080;2024-01-07T04:03:17;1.73;;;1.63;;
16193;SDS011;8204;53.582;10.080;2024-01-07T04:05:43;1.60;;;1.50;;
16193;SDS011;8204;53.582;10.080;2024-01-07T04:08:10;3.13;;;1.37;;
16193;SDS011;8204;53.582;10.080;2024-01-07T04:10:36;1.70;;;1.57;;
16193;SDS011;8204;53.582;10.080;2024-01-07T04:13:03;1.47;;;1.37;;
16193;SDS011;8204;53.582;10.080;2024-01-07T04:15:29;2.23;;;1.93;;
16193;SDS011;8204;53.582;10.080;2024-01-07T04:17:55;3.43;;;2.33;;
16193;SDS011;8204;53.582;10.080;2024-01-07T04:20:21;2.00;;;1.83;;
16193;SDS011;8204;53.582;10.080;2024-01-07T04:22:49;1.87;;;1.73;;
16193;SDS011;8204;53.582;10.080;2024-01-07T04:25:15;2.17;;;2.03;;
16193;SDS011;8204;53.582;10.080;2024-01-07T04:27:40;3.87;;;1.87;;
16193;SDS011;8204;53.582;10.080;2024-01-07T04:30:06;3.07;;;1.87;;
16193;SDS011;8204;53.582;10.080;2024-01-07T04:32:32;3.90;;;1.70;;
16193;SDS011;8204;53.582;10.080;2024-01-07T04:34:57;2.93;;;2.47;;
16193;SDS011;8204;53.582;10.080;2024-01-07T04:37:24;2.07;;;1.40;;
16193;SDS011;8204;53.582;10.080;2024-01-07T04:39:50;2.67;;;2.00;;
16193;SDS011;8204;53.582;10.080;2024-01-07T04:42:19;2.00;;;1.90;;
16193;SDS011;8204;53.582;10.080;2024-01-07T04:44:44;4.20;;;2.20;;
16193;SDS011;8204;53.582;10.080;2024-01-07T04:47:23;4.97;;;2.20;;
16193;SDS011;8204;53.582;10.080;2024-01-07T04:49:52;1.33;;;1.17;;
16193;SDS011;8204;53.582;10.080;2024-01-07T04:52:18;1.90;;;1.77;;
16193;SDS011;8204;53.582;10.080;2024-01-07T04:54:44;1.40;;;1.13;;
16193;SDS011;8204;53.582;10.080;2024-01-07T04:57:10;2.50;;;1.53;;
16193;SDS011;8204;53.582;10.080;2024-01-07T04:59:35;1.57;;;1.30;;
16193;SDS011;8204;53.582;10.080;2024-01-07T05:02:00;1.30;;;1.20;;
16193;SDS011;8204;53.582;10.080;2024-01-07T05:04:27;2.53;;;1.63;;
16193;SDS011;8204;53.582;10.080;2024-01-07T05:06:53;1.93;;;1.80;;
16193;SDS011;8204;53.582;10.080;2024-01-07T05:09:18;1.67;;;1.57;;
16193;SDS011;8204;53.582;10.080;2024-01-07T05:11:44;1.60;;;1.50;;
16193;SDS011;8204;53.582;10.080;2024-01-07T05:14:11;1.60;;;1.40;;
16193;SDS011;8204;53.582;10.080;2024-01-07T05:16:36;2.63;;;2.33;;
16193;SDS011;8204;53.582;10.080;2024-01-07T05:19:03;1.97;;;1.57;;
16193;SDS011;8204;53.582;10.080;2024-01-07T05:21:30;1.13;;;1.03;;
16193;SDS011;8204;53.582;10.080;2024-01-07T05:23:56;1.40;;;1.20;;
16193;SDS011;8204;53.582;10.080;2024-01-07T05:26:21;0.83;;;0.83;;
16193;SDS011;8204;53.582;10.080;2024-01-07T05:28:48;2.40;;;1.30;;
16193;SDS011;8204;53.582;10.080;2024-01-07T05:31:17;1.53;;;1.13;;
16193;SDS011;8204;53.582;10.080;2024-01-07T05:33:43;1.43;;;1.33;;
16193;SDS011;8204;53.582;10.080;2024-01-07T05:36:10;1.43;;;1.33;;
16193;SDS011;8204;53.582;10.080;2024-01-07T05:38:36;2.17;;;1.40;;
16193;SDS011;8204;53.582;10.080;2024-01-07T05:41:02;2.57;;;1.00;;
16193;SDS011;8204;53.582;10.080;2024-01-07T05:43:28;1.50;;;1.23;;
16193;SDS011;8204;53.582;10.080;2024-01-07T05:45:54;1.37;;;1.27;;
16193;SDS011;8204;53.582;10.080;2024-01-07T05:48:21;2.17;;;1.30;;
16193;SDS011;8204;53.582;10.080;2024-01-07T05:50:48;1.10;;;1.00;;
16193;SDS011;8204;53.582;10.080;2024-01-07T05:53:14;1.53;;;1.23;;
16193;SDS011;8204;53.582;10.080;2024-01-07T05:55:40;4.53;;;1.20;;
16193;SDS011;8204;53.582;10.080;2024-01-07T05:58:05;3.30;;;1.53;;
16193;SDS011;8204;53.582;10.080;2024-01-07T06:00:31;3.07;;;1.30;;
16193;SDS011;8204;53.582;10.080;2024-01-07T06:02:57;1.40;;;1.30;;
16193;SDS011;8204;53.582;10.080;2024-01-07T06:05:22;2.00;;;1.47;;
16193;SDS011;8204;53.582;10.080;2024-01-07T06:07:48;1.57;;;1.47;;
16193;SDS011;8204;53.582;10.080;2024-01-07T06:10:14;1.70;;;1.60;;
16193;SDS011;8204;53.582;10.080;2024-01-07T06:12:40;1.80;;;1.70;;
16193;SDS011;8204;53.582;10.080;2024-01-07T06:15:06;1.30;;;1.20;;
16193;SDS011;8204;53.582;10.080;2024-01-07T06:17:32;2.60;;;2.17;;
16193;SDS011;8204;53.582;10.080;2024-01-07T06:19:58;2.07;;;1.60;;
16193;SDS011;8204;53.582;10.080;2024-01-07T06:22:24;2.90;;;2.70;;
16193;SDS011;8204;53.582;10.080;2024-01-07T06:24:49;3.20;;;2.93;;
16193;SDS011;8204;53.582;10.080;2024-01-07T06:27:14;3.73;;;2.67;;
16193;SDS011;8204;53.582;10.080;2024-01-07T06:29:40;4.97;;;2.60;;
16193;SDS011;8204;53.582;10.080;2024-01-07T06:32:06;2.77;;;2.57;;
16193;SDS011;8204;53.582;10.080;2024-01-07T06:34:32;2.83;;;2.00;;
16193;SDS011;8204;53.582;10.080;2024-01-07T06:36:58;3.07;;;2.50;;
16193;SDS011;8204;53.582;10.080;2024-01-07T06:39:25;1.70;;;1.60;;
16193;SDS011;8204;53.582;10.080;2024-01-07T06:41:52;7.40;;;2.27;;
16193;SDS011;8204;53.582;10.080;2024-01-07T06:44:18;3.23;;;2.93;;
16193;SDS011;8204;53.582;10.080;2024-01-07T06:46:43;4.93;;;1.60;;
16193;SDS011;8204;53.582;10.080;2024-01-07T06:49:09;5.20;;;1.70;;
16193;SDS011;8204;53.582;10.080;2024-01-07T06:51:34;2.10;;;1.80;;
16193;SDS011;8204;53.582;10.080;2024-01-07T06:54:00;1.80;;;1.60;;
16193;SDS011;8204;53.582;10.080;2024-01-07T06:56:25;3.07;;;2.20;;
16193;SDS011;8204;53.582;10.080;2024-01-07T06:58:51;1.53;;;1.43;;
16193;SDS011;8204;53.582;10.080;2024-01-07T07:01:20;3.27;;;1.60;;
16193;SDS011;8204;53.582;10.080;2024-01-07T07:03:47;2.07;;;1.53;;
16193;SDS011;8204;53.582;10.080;2024-01-07T07:06:13;2.17;;;1.67;;
16193;SDS011;8204;53.582;10.080;2024-01-07T07:08:38;2.60;;;1.60;;
16193;SDS011;8204;53.582;10.080;2024-01-07T07:11:04;3.20;;;1.80;;
16193;SDS011;8204;53.582;10.080;2024-01-07T07:13:30;2.47;;;2.10;;
16193;SDS011;8204;53.582;10.080;2024-01-07T07:15:56;2.43;;;2.23;;
16193;SDS011;8204;53.582;10.080;2024-01-07T07:18:23;3.57;;;2.43;;
16193;SDS011;8204;53.582;10.080;2024-01-07T07:20:50;2.67;;;2.40;;
16193;SDS011;8204;53.582;10.080;2024-01-07T07:23:17;5.63;;;2.83;;
16193;SDS011;8204;53.582;10.080;2024-01-07T07:25:42;3.10;;;2.17;;
16193;SDS011;8204;53.582;10.080;2024-01-07T07:28:08;2.80;;;2.40;;
16193;SDS011;8204;53.582;10.080;2024-01-07T07:30:34;8.50;;;3.73;;
16193;SDS011;8204;53.582;10.080;2024-01-07T07:33:00;3.43;;;3.13;;
16193;SDS011;8204;53.582;10.080;2024-01-07T07:35:26;3.53;;;2.80;;
16193;SDS011;8204;53.582;10.080;2024-01-07T07:37:53;6.70;;;2.97;;
16193;SDS011;8204;53.582;10.080;2024-01-07T07:40:19;4.67;;;3.40;;
16193;SDS011;8204;53.582;10.080;2024-01-07T07:42:44;9.47;;;4.27;;
16193;SDS011;8204;53.582;10.080;2024-01-07T07:45:10;3.67;;;3.30;;
16193;SDS011;8204;53.582;10.080;2024-01-07T07:47:36;4.13;;;3.60;;
16193;SDS011;8204;53.582;10.080;2024-01-07T07:50:03;4.00;;;3.00;;
16193;SDS011;8204;53.582;10.080;2024-01-07T07:52:29;4.07;;;3.23;;
16193;SDS011;8204;53.582;10.080;2024-01-07T07:54:54;6.47;;;3.97;;
16193;SDS011;8204;53.582;10.080;2024-01-07T07:57:21;5.97;;;3.17;;
16193;SDS011;8204;53.582;10.080;2024-01-07T07:59:50;4.17;;;3.23;;
16193;SDS011;8204;53.582;10.080;2024-01-07T08:02:16;6.77;;;4.10;;
16193;SDS011;8204;53.582;10.080;2024-01-07T08:04:42;5.00;;;3.73;;
16193;SDS011;8204;53.582;10.080;2024-01-07T08:07:09;5.53;;;4.37;;
16193;SDS011;8204;53.582;10.080;2024-01-07T08:09:35;3.40;;;3.10;;
16193;SDS011;8204;53.582;10.080;2024-01-07T08:12:06;5.10;;;4.50;;
16193;SDS011;8204;53.582;10.080;2024-01-07T08:14:32;8.03;;;4.73;;
16193;SDS011;8204;53.582;10.080;2024-01-07T08:16:58;4.33;;;3.87;;
16193;SDS011;8204;53.582;10.080;2024-01-07T08:19:24;7.07;;;4.30;;
16193;SDS011;8204;53.582;10.080;2024-01-07T08:21:50;4.33;;;3.57;;
16193;SDS011;8204;53.582;10.080;2024-01-07T08:24:16;5.60;;;3.80;;
16193;SDS011;8204;53.582;10.080;2024-01-07T08:26:42;5.67;;;3.80;;
16193;SDS011;8204;53.582;10.080;2024-01-07T08:29:07;4.10;;;3.40;;
16193;SDS011;8204;53.582;10.080;2024-01-07T08:31:32;5.60;;;4.17;;
16193;SDS011;8204;53.582;10.080;2024-01-07T08:33:59;4.70;;;3.93;;
16193;SDS011;8204;53.582;10.080;2024-01-07T08:36:25;5.60;;;3.67;;
16193;SDS011;8204;53.582;10.080;2024-01-07T08:38:50;5.50;;;4.53;;
16193;SDS011;8204;53.582;10.080;2024-01-07T08:41:16;4.20;;;3.20;;
16193;SDS011;8204;53.582;10.080;2024-01-07T08:43:42;7.80;;;5.03;;
16193;SDS011;8204;53.582;10.080;2024-01-07T08:46:07;4.60;;;3.70;;
16193;SDS011;8204;53.582;10.080;2024-01-07T08:48:32;4.43;;;3.97;;
16193;SDS011;8204;53.582;10.080;2024-01-07T08:50:58;4.00;;;3.50;;
16193;SDS011;8204;53.582;10.080;2024-01-07T08:53:23;4.07;;;3.67;;
16193;SDS011;8204;53.582;10.080;2024-01-07T08:55:49;4.07;;;3.53;;
16193;SDS011;8204;53.582;10.080;2024-01-07T08:58:15;4.20;;;3.77;;
16193;SDS011;8204;53.582;10.080;2024-01-07T09:00:40;3.63;;;3.23;;
16193;SDS011;8204;53.582;10.080;2024-01-07T09:03:07;5.90;;;3.33;;
16193;SDS011;8204;53.582;10.080;2024-01-07T09:05:33;5.40;;;3.93;;
16193;SDS011;8204;53.582;10.080;2024-01-07T09:07:58;6.17;;;4.40;;
16193;SDS011;8204;53.582;10.080;2024-01-07T09:10:25;4.50;;;3.30;;
16193;SDS011;8204;53.582;10.080;2024-01-07T09:12:54;8.93;;;4.10;;
16193;SDS011;8204;53.582;10.080;2024-01-07T09:15:20;5.40;;;3.97;;
16193;SDS011;8204;53.582;10.080;2024-01-07T09:17:46;2.40;;;2.27;;
16193;SDS011;8204;53.582;10.080;2024-01-07T09:20:12;6.97;;;3.47;;
16193;SDS011;8204;53.582;10.080;2024-01-07T09:22:39;4.73;;;3.40;;
16193;SDS011;8204;53.582;10.080;2024-01-07T09:25:06;4.23;;;3.07;;
16193;SDS011;8204;53.582;10.080;2024-01-07T09:27:32;4.07;;;3.67;;
16193;SDS011;8204;53.582;10.080;2024-01-07T09:29:58;4.40;;;4.00;;
16193;SDS011;8204;53.582;10.080;2024-01-07T09:32:25;4.03;;;3.63;;
16193;SDS011;8204;53.582;10.080;2024-01-07T09:34:50;5.57;;;3.47;;
16193;SDS011;8204;53.582;10.080;2024-01-07T09:37:16;4.20;;;3.80;;
16193;SDS011;8204;53.582;10.080;2024-01-07T09:39:42;7.93;;;4.60;;
16193;SDS011;8204;53.582;10.080;2024-01-07T09:42:13;3.20;;;2.93;;
16193;SDS011;8204;53.582;10.080;2024-01-07T09:44:40;5.03;;;3.30;;
16193;SDS011;8204;53.582;10.080;2024-01-07T09:47:07;3.43;;;2.60;;
16193;SDS011;8204;53.582;10.080;2024-01-07T09:49:35;5.07;;;3.03;;
16193;SDS011;8204;53.582;10.080;2024-01-07T09:52:01;3.37;;;3.07;;
16193;SDS011;8204;53.582;10.080;2024-01-07T09:54:29;3.07;;;2.73;;
16193;SDS011;8204;53.582;10.080;2024-01-07T09:56:55;3.30;;;2.57;;
16193;SDS011;8204;53.582;10.080;2024-01-07T09:59:29;5.17;;;2.40;;
16193;SDS011;8204;53.582;10.080;2024-01-07T10:01:57;5.70;;;3.33;;
16193;SDS011;8204;53.582;10.080;2024-01-07T10:04:23;4.03;;;3.53;;
16193;SDS011;8204;53.582;10.080;2024-01-07T10:06:50;4.77;;;3.43;;
16193;SDS011;8204;53.582;10.080;2024-01-07T10:09:18;3.70;;;2.90;;
16193;SDS011;8204;53.582;10.080;2024-01-07T10:11:46;2.90;;;2.60;;
16193;SDS011;8204;53.582;10.080;2024-01-07T10:14:12;5.60;;;3.63;;
16193;SDS011;8204;53.582;10.080;2024-01-07T10:16:38;3.87;;;3.37;;
16193;SDS011;8204;53.582;10.080;2024-01-07T10:19:05;2.93;;;2.60;;
16193;SDS011;8204;53.582;10.080;2024-01-07T10:21:33;3.03;;;2.77;;
16193;SDS011;8204;53.582;10.080;2024-01-07T10:24:12;4.13;;;3.63;;
16193;SDS011;8204;53.582;10.080;2024-01-07T10:26:39;4.47;;;3.07;;
16193;SDS011;8204;53.582;10.080;2024-01-07T10:29:05;4.50;;;3.10;;
16193;SDS011;8204;53.582;10.080;2024-01-07T10:31:33;4.07;;;2.73;;
16193;SDS011;8204;53.582;10.080;2024-01-07T10:33:58;6.77;;;4.63;;
16193;SDS011;8204;53.582;10.080;2024-01-07T10:36:24;3.67;;;3.30;;
16193;SDS011;8204;53.582;10.080;2024-01-07T10:38:50;3.60;;;3.40;;
16193;SDS011;8204;53.582;10.080;2024-01-07T10:41:19;5.90;;;3.57;;
16193;SDS011;8204;53.582;10.080;2024-01-07T10:43:46;10.33;;;6.30;;
16193;SDS011;8204;53.582;10.080;2024-01-07T10:46:13;4.00;;;3.27;;
16193;SDS011;8204;53.582;10.080;2024-01-07T10:48:42;5.53;;;3.83;;
16193;SDS011;8204;53.582;10.080;2024-01-07T10:51:16;3.57;;;3.27;;
16193;SDS011;8204;53.582;10.080;2024-01-07T10:53:46;4.17;;;3.20;;
16193;SDS011;8204;53.582;10.080;2024-01-07T10:56:16;3.27;;;2.97;;
16193;SDS011;8204;53.582;10.080;2024-01-07T10:58:48;2.90;;;2.70;;
16193;SDS011;8204;53.582;10.080;2024-01-07T11:01:17;2.90;;;2.70;;
16193;SDS011;8204;53.582;10.080;2024-01-07T11:09:33;3.47;;;2.80;;
16193;SDS011;8204;53.582;10.080;2024-01-07T11:12:03;4.73;;;3.53;;
16193;SDS011;8204;53.582;10.080;2024-01-07T11:14:34;3.13;;;2.93;;
16193;SDS011;8204;53.582;10.080;2024-01-07T11:17:04;4.63;;;4.20;;
16193;SDS011;8204;53.582;10.080;2024-01-07T11:19:30;7.93;;;3.73;;
16193;SDS011;8204;53.582;10.080;2024-01-07T11:22:20;5.17;;;3.57;;
16193;SDS011;8204;53.582;10.080;2024-01-07T11:24:50;5.77;;;3.07;;
16193;SDS011;8204;53.582;10.080;2024-01-07T11:27:16;3.37;;;3.07;;
16193;SDS011;8204;53.582;10.080;2024-01-07T11:29:42;3.97;;;2.97;;
16193;SDS011;8204;53.582;10.080;2024-01-07T11:32:12;3.37;;;2.77;;
16193;SDS011;8204;53.582;10.080;2024-01-07T11:34:39;3.97;;;2.87;;
16193;SDS011;8204;53.582;10.080;2024-01-07T11:37:12;3.83;;;2.93;;
16193;SDS011;8204;53.582;10.080;2024-01-07T11:39:45;4.40;;;2.80;;
16193;SDS011;8204;53.582;10.080;2024-01-07T11:42:11;4.80;;;2.97;;
16193;SDS011;8204;53.582;10.080;2024-01-07T11:44:38;5.17;;;3.37;;
16193;SDS011;8204;53.582;10.080;2024-01-07T11:47:11;18.60;;;4.23;;
16193;SDS011;8204;53.582;10.080;2024-01-07T11:49:36;7.43;;;3.90;;
16193;SDS011;8204;53.582;10.080;2024-01-07T11:52:04;5.60;;;3.70;;
16193;SDS011;8204;53.582;10.080;2024-01-07T11:54:31;4.83;;;4.43;;
16193;SDS011;8204;53.582;10.080;2024-01-07T11:56:56;4.20;;;3.70;;
16193;SDS011;8204;53.582;10.080;2024-01-07T11:59:23;4.87;;;3.70;;
16193;SDS011;8204;53.582;10.080;2024-01-07T12:01:48;4.47;;;3.90;;
16193;SDS011;8204;53.582;10.080;2024-01-07T12:04:14;5.83;;;3.30;;
16193;SDS011;8204;53.582;10.080;2024-01-07T12:06:39;3.27;;;3.00;;
16193;SDS011;8204;53.582;10.080;2024-01-07T12:09:05;3.97;;;3.57;;
16193;SDS011;8204;53.582;10.080;2024-01-07T12:11:31;3.87;;;3.13;;
16193;SDS011;8204;53.582;10.080;2024-01-07T12:13:59;6.20;;;3.13;;
16193;SDS011;8204;53.582;10.080;2024-01-07T12:16:25;2.67;;;2.33;;
16193;SDS011;8204;53.582;10.080;2024-01-07T12:18:51;3.23;;;2.93;;
16193;SDS011;8204;53.582;10.080;2024-01-07T12:21:19;2.90;;;2.63;;
16193;SDS011;8204;53.582;10.080;2024-01-07T12:23:48;4.53;;;2.53;;
16193;SDS011;8204;53.582;10.080;2024-01-07T12:26:14;3.07;;;2.83;;
16193;SDS011;8204;53.582;10.080;2024-01-07T12:28:40;2.90;;;2.70;;
16193;SDS011;8204;53.582;10.080;2024-01-07T12:31:06;2.40;;;2.20;;
16193;SDS011;8204;53.582;10.080;2024-01-07T12:33:32;4.43;;;2.40;;
16193;SDS011;8204;53.582;10.080;2024-01-07T12:35:58;2.83;;;2.30;;
16193;SDS011;8204;53.582;10.080;2024-01-07T12:38:24;3.90;;;2.47;;
16193;SDS011;8204;53.582;10.080;2024-01-07T12:40:54;2.63;;;2.43;;
16193;SDS011;8204;53.582;10.080;2024-01-07T12:43:21;4.23;;;2.77;;
16193;SDS011;8204;53.582;10.080;2024-01-07T12:45:48;2.83;;;2.60;;
16193;SDS011;8204;53.582;10.080;2024-01-07T12:48:14;3.10;;;2.70;;
16193;SDS011;8204;53.582;10.080;2024-01-07T12:50:40;7.43;;;4.60;;
16193;SDS011;8204;53.582;10.080;2024-01-07T12:53:06;3.83;;;3.53;;
16193;SDS011;8204;53.582;10.080;2024-01-07T12:55:31;2.70;;;2.50;;
16193;SDS011;8204;53.582;10.080;2024-01-07T12:57:57;3.43;;;2.40;;
16193;SDS011;8204;53.582;10.080;2024-01-07T13:00:26;3.80;;;3.47;;
16193;SDS011;8204;53.582;10.080;2024-01-07T13:02:54;2.10;;;2.00;;
16193;SDS011;8204;53.582;10.080;2024-01-07T13:05:20;3.57;;;3.23;;
16193;SDS011;8204;53.582;10.080;2024-01-07T13:07:46;3.13;;;2.93;;
16193;SDS011;8204;53.582;10.080;2024-01-07T13:10:13;2.33;;;2.13;;
